»·PEaware :: UAL1399 KEUG-KSEA

UAL1399 :: KEUG-KSEA

FLIGHT INFORMATION

Flight Status: Arrived
Operator:
United Airlines
More flights by this operator :: More flights under this callsign
Pilot: David C. (16084)
Aircraft: AIRBUS A321
(A321)
More flights by this aircraft type
Origin: KEUG Mahlon Sweet
United States
Destination: KSEA Seattle-Tacoma Intl
United States
More flights between these airports :: More routes between these airports
Route: EUG1 PORTL BTG HAWKZ7
File this flight plan on PilotEdge
Remarks:
Altitude:
(Current/Filed)
26,000ft
Speed:
(Current/Filed)
472kts
Departed: 08-Feb-21 01:02 PM
Arrived: 08-Feb-21 01:49 PM
Distance/Time
Traveled:
203nm/0:47
Distance/Time
To Go:
Arrived

Flight Plot

Page will automatically refresh every two minutes.

Flight plan parsing failed; only flown route is shown


Map Options




Map Legend


Flown Route
Filed Route
Departure Airport
Arrival Airport
Navaid (VOR, NDB)
Fix

Horizontal Profiles

Position Reports

Time Latitude Longitude Heading Altitude Ground
Speed
08-Feb-21 12:47 44.120558 -123.212786 220 374ft 0kts
08-Feb-21 12:48 44.120558 -123.212786 220 374ft 0kts
08-Feb-21 12:49 44.120558 -123.212786 220 374ft 0kts
08-Feb-21 12:50 44.120558 -123.212786 220 374ft 0kts
08-Feb-21 12:51 44.120558 -123.212786 220 374ft 0kts
08-Feb-21 12:52 44.120558 -123.212786 220 374ft 0kts
08-Feb-21 12:53 44.120558 -123.212786 220 374ft 0kts
08-Feb-21 12:54 44.120823 -123.213728 312 375ft 9kts
08-Feb-21 12:55 44.124539 -123.216997 349 372ft 20kts
08-Feb-21 12:56 44.130201 -123.217132 358 369ft 20kts
08-Feb-21 12:57 44.135188 -123.217561 300 367ft 4kts
08-Feb-21 12:58 44.135226 -123.217696 286 367ft 0kts
08-Feb-21 12:59 44.135226 -123.217696 286 367ft 0kts
08-Feb-21 13:00 44.134793 -123.219117 180 368ft 17kts
08-Feb-21 13:01 44.097672 -123.218474 179 1267ft 188kts
08-Feb-21 13:02 44.041040 -123.216557 178 3082ft 219kts
08-Feb-21 13:03 43.980037 -123.214461 178 5616ft 225kts
08-Feb-21 13:04 43.946253 -123.155616 69 7924ft 233kts
08-Feb-21 13:05 44.002221 -123.102670 22 9004ft 274kts
08-Feb-21 13:06 44.072045 -123.056339 21 10668ft 288kts
08-Feb-21 13:07 44.149514 -123.004713 20 12601ft 321kts
08-Feb-21 13:08 44.233750 -122.948344 19 14643ft 343kts
08-Feb-21 13:09 44.321200 -122.889516 18 16741ft 356kts
08-Feb-21 13:10 44.412157 -122.828099 18 18668ft 369kts
08-Feb-21 13:11 44.506002 -122.764521 18 20262ft 386kts
08-Feb-21 13:12 44.607041 -122.709353 359 21708ft 387kts
08-Feb-21 13:13 44.714562 -122.698168 355 23254ft 393kts
08-Feb-21 13:15 44.824844 -122.687409 355 24694ft 403kts
08-Feb-21 13:16 44.938380 -122.676036 355 25907ft 417kts
08-Feb-21 13:17 45.058119 -122.664094 354 26183ft 448kts
08-Feb-21 13:18 45.180828 -122.651411 354 26178ft 438kts
08-Feb-21 13:19 45.302630 -122.638970 354 26177ft 438kts
08-Feb-21 13:20 45.424186 -122.626426 354 26189ft 438kts
08-Feb-21 13:21 45.545793 -122.613755 354 26194ft 438kts
08-Feb-21 13:22 45.667593 -122.600982 354 26180ft 438kts
08-Feb-21 13:23 45.784197 -122.602162 343 25209ft 404kts
08-Feb-21 13:24 45.894069 -122.628953 342 24210ft 403kts
08-Feb-21 13:25 46.005085 -122.656448 342 23204ft 406kts
08-Feb-21 13:26 46.113845 -122.682618 344 22232ft 411kts
08-Feb-21 13:27 46.227779 -122.704861 345 21640ft 413kts
08-Feb-21 13:28 46.342078 -122.723845 350 21642ft 418kts
08-Feb-21 13:28 46.439798 -122.727782 352 19916ft 419kts
08-Feb-21 13:30 46.570428 -122.732246 353 17159ft 393kts
08-Feb-21 13:31 46.676971 -122.735979 353 15564ft 375kts
08-Feb-21 13:31 46.763233 -122.738797 357 14942ft 365kts
08-Feb-21 13:33 46.860397 -122.650786 33 13162ft 345kts
08-Feb-21 13:33 46.921528 -122.581085 32 12037ft 323kts
08-Feb-21 13:34 46.997076 -122.536547 11 12014ft 286kts
08-Feb-21 13:36 47.086481 -122.500165 5 12013ft 283kts
08-Feb-21 13:36 47.150923 -122.487971 2 11367ft 284kts
08-Feb-21 13:37 47.227449 -122.475043 1 10053ft 273kts
08-Feb-21 13:38 47.301868 -122.463738 1 8772ft 266kts
08-Feb-21 13:39 47.368522 -122.455853 355 8076ft 243kts
08-Feb-21 13:40 47.436569 -122.456002 355 6911ft 244kts
08-Feb-21 13:41 47.503442 -122.456067 356 6022ft 229kts
08-Feb-21 13:42 47.567769 -122.455494 2 4933ft 230kts
08-Feb-21 13:43 47.609648 -122.397712 80 3901ft 208kts
08-Feb-21 13:44 47.588775 -122.326623 145 2838ft 185kts
08-Feb-21 13:45 47.543755 -122.310331 182 2030ft 158kts
08-Feb-21 13:46 47.503562 -122.311009 181 1283ft 142kts
08-Feb-21 13:47 47.464476 -122.311020 181 542ft 140kts
08-Feb-21 13:48 47.444532 -122.309448 150 478ft 0kts
08-Feb-21 13:49 47.443629 -122.308389 122 478ft 11kts
08-Feb-21 13:50 47.440777 -122.306378 181 478ft 15kts
08-Feb-21 13:51 47.440319 -122.300957 127 478ft 17kts
08-Feb-21 13:52 47.439895 -122.298872 54 478ft 0kts
08-Feb-21 13:53 47.439895 -122.298872 54 478ft 0kts

Navigation Log

Ident Type
Flight plan parsing failed, navigation log unavailable